sensor_id;sensor_type;location;lat;lon;timestamp;pressure;altitude;pressure_sealevel;temperature;humidity
62634;BME280;48704;50.534;6.442;2023-11-19T00:01:50;95081.22;;;8.45;100.00
62634;BME280;48704;50.534;6.442;2023-11-19T00:07:59;95061.78;;;8.45;100.00
62634;BME280;48704;50.534;6.442;2023-11-19T00:11:04;95048.19;;;8.47;100.00
62634;BME280;48704;50.534;6.442;2023-11-19T00:24:08;95055.88;;;8.52;100.00
62634;BME280;48704;50.534;6.442;2023-11-19T00:27:50;95062.97;;;8.53;100.00
62634;BME280;48704;50.534;6.442;2023-11-19T00:30:37;95075.38;;;8.58;100.00
62634;BME280;48704;50.534;6.442;2023-11-19T00:36:42;95064.66;;;8.65;100.00
62634;BME280;48704;50.534;6.442;2023-11-19T00:43:35;95058.75;;;8.73;100.00
62634;BME280;48704;50.534;6.442;2023-11-19T00:50:04;95063.91;;;8.80;100.00
62634;BME280;48704;50.534;6.442;2023-11-19T00:52:30;95060.47;;;8.85;100.00
62634;BME280;48704;50.534;6.442;2023-11-19T00:54:55;95048.94;;;8.92;100.00
62634;BME280;48704;50.534;6.442;2023-11-19T00:57:22;95032.28;;;8.92;100.00
62634;BME280;48704;50.534;6.442;2023-11-19T00:59:47;95043.00;;;8.99;100.00
62634;BME280;48704;50.534;6.442;2023-11-19T01:02:13;95056.44;;;9.00;100.00
62634;BME280;48704;50.534;6.442;2023-11-19T01:04:40;95047.22;;;9.09;100.00
62634;BME280;48704;50.534;6.442;2023-11-19T01:07:07;95031.13;;;9.13;100.00
62634;BME280;48704;50.534;6.442;2023-11-19T01:09:37;95036.69;;;9.13;100.00
62634;BME280;48704;50.534;6.442;2023-11-19T01:12:03;95040.50;;;9.16;100.00
62634;BME280;48704;50.534;6.442;2023-11-19T01:14:30;95028.63;;;9.15;100.00
62634;BME280;48704;50.534;6.442;2023-11-19T01:16:55;95035.53;;;9.20;100.00
62634;BME280;48704;50.534;6.442;2023-11-19T01:19:21;95039.75;;;9.15;100.00
62634;BME280;48704;50.534;6.442;2023-11-19T01:21:48;95035.72;;;9.16;100.00
62634;BME280;48704;50.534;6.442;2023-11-19T01:24:13;95039.34;;;9.22;100.00
62634;BME280;48704;50.534;6.442;2023-11-19T01:26:39;95029.97;;;9.20;100.00
62634;BME280;48704;50.534;6.442;2023-11-19T01:29:13;95036.28;;;9.20;100.00
62634;BME280;48704;50.534;6.442;2023-11-19T01:31:41;95033.03;;;9.22;100.00
62634;BME280;48704;50.534;6.442;2023-11-19T01:34:06;95027.28;;;9.25;100.00
62634;BME280;48704;50.534;6.442;2023-11-19T01:36:32;95028.81;;;9.26;100.00
62634;BME280;48704;50.534;6.442;2023-11-19T01:38:57;95020.47;;;9.26;100.00
62634;BME280;48704;50.534;6.442;2023-11-19T01:41:22;95017.69;;;9.26;100.00
62634;BME280;48704;50.534;6.442;2023-11-19T01:43:48;95034.91;;;9.30;100.00
62634;BME280;48704;50.534;6.442;2023-11-19T01:46:13;95027.81;;;9.29;100.00
62634;BME280;48704;50.534;6.442;2023-11-19T01:48:44;95025.31;;;9.31;100.00
62634;BME280;48704;50.534;6.442;2023-11-19T01:51:11;95017.94;;;9.28;100.00
62634;BME280;48704;50.534;6.442;2023-11-19T01:53:38;95036.44;;;9.31;100.00
62634;BME280;48704;50.534;6.442;2023-11-19T01:56:05;95018.22;;;9.30;100.00
62634;BME280;48704;50.534;6.442;2023-11-19T01:58:34;95022.81;;;9.33;100.00
62634;BME280;48704;50.534;6.442;2023-11-19T02:01:00;95033.94;;;9.33;100.00
62634;BME280;48704;50.534;6.442;2023-11-19T02:03:25;95025.88;;;9.35;100.00
62634;BME280;48704;50.534;6.442;2023-11-19T02:05:51;95000.56;;;9.33;100.00
62634;BME280;48704;50.534;6.442;2023-11-19T02:08:18;95051.59;;;9.30;100.00
62634;BME280;48704;50.534;6.442;2023-11-19T02:10:43;95000.78;;;9.30;100.00
62634;BME280;48704;50.534;6.442;2023-11-19T02:13:08;94987.16;;;9.32;100.00
62634;BME280;48704;50.534;6.442;2023-11-19T02:15:35;95004.88;;;9.34;100.00
62634;BME280;48704;50.534;6.442;2023-11-19T02:18:23;95055.31;;;9.42;100.00
62634;BME280;48704;50.534;6.442;2023-11-19T02:20:49;94996.16;;;9.42;100.00
62634;BME280;48704;50.534;6.442;2023-11-19T02:23:15;94992.53;;;9.35;100.00
62634;BME280;48704;50.534;6.442;2023-11-19T02:25:42;94991.41;;;9.27;100.00
62634;BME280;48704;50.534;6.442;2023-11-19T02:28:08;95001.25;;;9.28;100.00
62634;BME280;48704;50.534;6.442;2023-11-19T02:30:37;94998.06;;;9.35;100.00
62634;BME280;48704;50.534;6.442;2023-11-19T02:33:02;94993.69;;;9.29;100.00
62634;BME280;48704;50.534;6.442;2023-11-19T02:35:31;94984.31;;;9.26;100.00
62634;BME280;48704;50.534;6.442;2023-11-19T02:37:57;94995.44;;;9.26;100.00
62634;BME280;48704;50.534;6.442;2023-11-19T02:40:22;94996.22;;;9.27;100.00
62634;BME280;48704;50.534;6.442;2023-11-19T02:42:50;94967.63;;;9.26;100.00
62634;BME280;48704;50.534;6.442;2023-11-19T02:45:15;95004.13;;;9.34;100.00
62634;BME280;48704;50.534;6.442;2023-11-19T02:47:41;94964.16;;;9.31;100.00
62634;BME280;48704;50.534;6.442;2023-11-19T02:50:12;94971.66;;;9.25;100.00
62634;BME280;48704;50.534;6.442;2023-11-19T02:52:42;94998.34;;;9.17;100.00
62634;BME280;48704;50.534;6.442;2023-11-19T02:55:09;94979.16;;;9.19;100.00
62634;BME280;48704;50.534;6.442;2023-11-19T02:57:37;94983.47;;;9.20;100.00
62634;BME280;48704;50.534;6.442;2023-11-19T03:00:03;94975.22;;;9.26;100.00
62634;BME280;48704;50.534;6.442;2023-11-19T03:02:39;94976.81;;;9.32;100.00
62634;BME280;48704;50.534;6.442;2023-11-19T03:05:09;94974.50;;;9.31;100.00
62634;BME280;48704;50.534;6.442;2023-11-19T03:07:35;94976.81;;;9.32;100.00
62634;BME280;48704;50.534;6.442;2023-11-19T03:10:00;94984.84;;;9.30;100.00
62634;BME280;48704;50.534;6.442;2023-11-19T03:12:25;94973.34;;;9.37;100.00
62634;BME280;48704;50.534;6.442;2023-11-19T03:14:51;94979.88;;;9.34;100.00
62634;BME280;48704;50.534;6.442;2023-11-19T03:17:16;94981.69;;;9.37;100.00
62634;BME280;48704;50.534;6.442;2023-11-19T03:19:42;94968.25;;;9.36;100.00
62634;BME280;48704;50.534;6.442;2023-11-19T03:22:07;94968.75;;;9.34;100.00
62634;BME280;48704;50.534;6.442;2023-11-19T03:24:32;94972.78;;;9.33;100.00
62634;BME280;48704;50.534;6.442;2023-11-19T03:26:58;94965.69;;;9.32;100.00
62634;BME280;48704;50.534;6.442;2023-11-19T03:29:23;94966.66;;;9.29;100.00
62634;BME280;48704;50.534;6.442;2023-11-19T03:31:48;94957.50;;;9.23;100.00
62634;BME280;48704;50.534;6.442;2023-11-19T03:34:15;94955.47;;;9.24;100.00
62634;BME280;48704;50.534;6.442;2023-11-19T03:36:40;94969.56;;;9.20;100.00
62634;BME280;48704;50.534;6.442;2023-11-19T03:39:06;94969.28;;;9.18;100.00
62634;BME280;48704;50.534;6.442;2023-11-19T03:41:31;94956.75;;;9.08;100.00
62634;BME280;48704;50.534;6.442;2023-11-19T03:43:57;94966.34;;;9.07;100.00
62634;BME280;48704;50.534;6.442;2023-11-19T03:46:22;94951.88;;;9.03;100.00
62634;BME280;48704;50.534;6.442;2023-11-19T03:48:48;94968.94;;;8.96;100.00
62634;BME280;48704;50.534;6.442;2023-11-19T03:51:14;94973.25;;;8.97;100.00
62634;BME280;48704;50.534;6.442;2023-11-19T03:53:42;94957.53;;;8.94;100.00
62634;BME280;48704;50.534;6.442;2023-11-19T03:56:08;94935.03;;;8.92;100.00
62634;BME280;48704;50.534;6.442;2023-11-19T03:58:35;94960.75;;;8.87;100.00
62634;BME280;48704;50.534;6.442;2023-11-19T04:01:00;94961.84;;;8.95;100.00
62634;BME280;48704;50.534;6.442;2023-11-19T04:03:27;94967.13;;;8.93;100.00
62634;BME280;48704;50.534;6.442;2023-11-19T04:05:53;94977.69;;;8.89;100.00
62634;BME280;48704;50.534;6.442;2023-11-19T04:08:19;94976.72;;;8.92;100.00
62634;BME280;48704;50.534;6.442;2023-11-19T04:10:48;94962.56;;;8.90;100.00
62634;BME280;48704;50.534;6.442;2023-11-19T04:13:14;94962.38;;;8.79;100.00
62634;BME280;48704;50.534;6.442;2023-11-19T04:15:42;95018.91;;;8.76;100.00
62634;BME280;48704;50.534;6.442;2023-11-19T04:18:11;94976.75;;;8.77;100.00
62634;BME280;48704;50.534;6.442;2023-11-19T04:20:37;94963.34;;;8.76;100.00
62634;BME280;48704;50.534;6.442;2023-11-19T04:23:07;94981.81;;;8.79;100.00
62634;BME280;48704;50.534;6.442;2023-11-19T04:25:35;94989.59;;;8.75;100.00
62634;BME280;48704;50.534;6.442;2023-11-19T04:28:03;94980.38;;;8.68;100.00
62634;BME280;48704;50.534;6.442;2023-11-19T04:30:31;94987.09;;;8.77;100.00
62634;BME280;48704;50.534;6.442;2023-11-19T04:33:42;94986.53;;;8.73;100.00
62634;BME280;48704;50.534;6.442;2023-11-19T04:36:26;94986.31;;;8.76;100.00
62634;BME280;48704;50.534;6.442;2023-11-19T04:38:59;94988.06;;;8.74;100.00
62634;BME280;48704;50.534;6.442;2023-11-19T04:41:25;95000.13;;;8.70;100.00
62634;BME280;48704;50.534;6.442;2023-11-19T04:43:50;94993.59;;;8.74;100.00
62634;BME280;48704;50.534;6.442;2023-11-19T04:46:16;95029.63;;;8.83;100.00
62634;BME280;48704;50.534;6.442;2023-11-19T04:48:41;94974.63;;;8.87;100.00
62634;BME280;48704;50.534;6.442;2023-11-19T04:51:07;95000.13;;;8.85;100.00
62634;BME280;48704;50.534;6.442;2023-11-19T04:53:35;95001.94;;;8.88;100.00
62634;BME280;48704;50.534;6.442;2023-11-19T04:56:01;94981.50;;;8.91;100.00
62634;BME280;48704;50.534;6.442;2023-11-19T04:58:29;94987.63;;;8.95;100.00
62634;BME280;48704;50.534;6.442;2023-11-19T05:00:56;94988.19;;;8.99;100.00
62634;BME280;48704;50.534;6.442;2023-11-19T05:03:21;94983.31;;;8.94;100.00
62634;BME280;48704;50.534;6.442;2023-11-19T05:05:49;94980.34;;;8.98;100.00
62634;BME280;48704;50.534;6.442;2023-11-19T05:08:44;94976.16;;;8.88;100.00
62634;BME280;48704;50.534;6.442;2023-11-19T05:11:15;94992.06;;;8.87;100.00
62634;BME280;48704;50.534;6.442;2023-11-19T05:13:43;95002.47;;;8.92;100.00
62634;BME280;48704;50.534;6.442;2023-11-19T05:16:10;94992.41;;;8.95;100.00
62634;BME280;48704;50.534;6.442;2023-11-19T05:18:36;95008.91;;;8.98;100.00
62634;BME280;48704;50.534;6.442;2023-11-19T05:21:01;95002.00;;;8.94;100.00
62634;BME280;48704;50.534;6.442;2023-11-19T05:23:27;95022.69;;;8.93;100.00
62634;BME280;48704;50.534;6.442;2023-11-19T05:25:55;95007.97;;;8.87;100.00
62634;BME280;48704;50.534;6.442;2023-11-19T05:28:21;95016.59;;;8.89;100.00
62634;BME280;48704;50.534;6.442;2023-11-19T05:30:49;95011.03;;;8.89;100.00
62634;BME280;48704;50.534;6.442;2023-11-19T05:33:15;95003.56;;;8.80;100.00
62634;BME280;48704;50.534;6.442;2023-11-19T05:35:40;95029.72;;;8.74;100.00
62634;BME280;48704;50.534;6.442;2023-11-19T05:38:05;95010.84;;;8.78;100.00
62634;BME280;48704;50.534;6.442;2023-11-19T05:40:31;95021.97;;;8.78;100.00
62634;BME280;48704;50.534;6.442;2023-11-19T05:42:56;95052.03;;;8.79;100.00
62634;BME280;48704;50.534;6.442;2023-11-19T05:45:21;95025.03;;;8.80;100.00
62634;BME280;48704;50.534;6.442;2023-11-19T05:47:47;95019.47;;;8.80;100.00
62634;BME280;48704;50.534;6.442;2023-11-19T05:50:12;95025.59;;;8.69;100.00
62634;BME280;48704;50.534;6.442;2023-11-19T05:52:37;95044.94;;;8.63;100.00
62634;BME280;48704;50.534;6.442;2023-11-19T05:55:03;95073.09;;;8.56;100.00
62634;BME280;48704;50.534;6.442;2023-11-19T05:57:38;95027.69;;;8.59;100.00
62634;BME280;48704;50.534;6.442;2023-11-19T06:00:07;95013.34;;;8.61;100.00
62634;BME280;48704;50.534;6.442;2023-11-19T06:02:35;95008.19;;;8.54;100.00
62634;BME280;48704;50.534;6.442;2023-11-19T06:05:02;95015.75;;;8.53;100.00
62634;BME280;48704;50.534;6.442;2023-11-19T06:07:28;95021.56;;;8.55;100.00
62634;BME280;48704;50.534;6.442;2023-11-19T06:09:53;95031.72;;;8.58;100.00
62634;BME280;48704;50.534;6.442;2023-11-19T06:12:18;95031.84;;;8.49;100.00
62634;BME280;48704;50.534;6.442;2023-11-19T06:14:44;95026.56;;;8.51;100.00
62634;BME280;48704;50.534;6.442;2023-11-19T06:17:09;95033.06;;;8.48;100.00
62634;BME280;48704;50.534;6.442;2023-11-19T06:19:36;95015.66;;;8.48;100.00
62634;BME280;48704;50.534;6.442;2023-11-19T06:22:03;95023.50;;;8.49;100.00
62634;BME280;48704;50.534;6.442;2023-11-19T06:24:28;95031.53;;;8.47;100.00
62634;BME280;48704;50.534;6.442;2023-11-19T06:26:53;95017.94;;;8.49;100.00
62634;BME280;48704;50.534;6.442;2023-11-19T06:29:19;95042.66;;;8.47;100.00
62634;BME280;48704;50.534;6.442;2023-11-19T06:31:45;95018.13;;;8.46;100.00
62634;BME280;48704;50.534;6.442;2023-11-19T06:34:10;95029.25;;;8.46;100.00
62634;BME280;48704;50.534;6.442;2023-11-19T06:36:35;95014.50;;;8.40;100.00
62634;BME280;48704;50.534;6.442;2023-11-19T06:39:01;95021.28;;;8.38;100.00
62634;BME280;48704;50.534;6.442;2023-11-19T06:41:27;95031.91;;;8.40;100.00
62634;BME280;48704;50.534;6.442;2023-11-19T06:43:54;95028.19;;;8.43;100.00
62634;BME280;48704;50.534;6.442;2023-11-19T06:46:19;95035.75;;;8.43;100.00
62634;BME280;48704;50.534;6.442;2023-11-19T06:48:44;95042.06;;;8.43;100.00
62634;BME280;48704;50.534;6.442;2023-11-19T06:51:11;95054.78;;;8.35;100.00
62634;BME280;48704;50.534;6.442;2023-11-19T06:53:36;95044.16;;;8.33;100.00
62634;BME280;48704;50.534;6.442;2023-11-19T06:56:02;95045.25;;;8.27;100.00
62634;BME280;48704;50.534;6.442;2023-11-19T06:58:32;95046.19;;;8.24;100.00
62634;BME280;48704;50.534;6.442;2023-11-19T07:00:57;95047.72;;;8.25;100.00
62634;BME280;48704;50.534;6.442;2023-11-19T07:03:23;95051.94;;;8.20;100.00
62634;BME280;48704;50.534;6.442;2023-11-19T07:05:48;95048.03;;;8.27;100.00
62634;BME280;48704;50.534;6.442;2023-11-19T07:08:13;95057.31;;;8.24;100.00
62634;BME280;48704;50.534;6.442;2023-11-19T07:10:39;95050.41;;;8.19;100.00
62634;BME280;48704;50.534;6.442;2023-11-19T07:13:04;95062.28;;;8.20;100.00
62634;BME280;48704;50.534;6.442;2023-11-19T07:15:31;95086.69;;;8.16;100.00
62634;BME280;48704;50.534;6.442;2023-11-19T07:18:01;95077.19;;;8.08;100.00
62634;BME280;48704;50.534;6.442;2023-11-19T07:20:27;95082.91;;;8.04;100.00
62634;BME280;48704;50.534;6.442;2023-11-19T07:22:55;95067.38;;;7.97;100.00
62634;BME280;48704;50.534;6.442;2023-11-19T07:25:22;95083.44;;;7.93;100.00
62634;BME280;48704;50.534;6.442;2023-11-19T07:27:48;95072.34;;;7.93;100.00
62634;BME280;48704;50.534;6.442;2023-11-19T07:30:14;95077.00;;;7.87;100.00
62634;BME280;48704;50.534;6.442;2023-11-19T07:32:39;95077.66;;;7.82;100.00
62634;BME280;48704;50.534;6.442;2023-11-19T07:35:05;95083.66;;;7.81;100.00
62634;BME280;48704;50.534;6.442;2023-11-19T07:37:31;95074.56;;;7.80;100.00
62634;BME280;48704;50.534;6.442;2023-11-19T07:39:56;95087.22;;;7.81;100.00
62634;BME280;48704;50.534;6.442;2023-11-19T07:42:21;95089.03;;;7.84;100.00
62634;BME280;48704;50.534;6.442;2023-11-19T07:44:48;95084.44;;;7.81;100.00
62634;BME280;48704;50.534;6.442;2023-11-19T07:47:13;95092.19;;;7.77;100.00
62634;BME280;48704;50.534;6.442;2023-11-19T07:49:38;95082.63;;;7.78;100.00
62634;BME280;48704;50.534;6.442;2023-11-19T07:52:04;95109.00;;;7.74;100.00
62634;BME280;48704;50.534;6.442;2023-11-19T07:54:29;95095.25;;;7.79;100.00
62634;BME280;48704;50.534;6.442;2023-11-19T07:56:55;95101.38;;;7.83;100.00
62634;BME280;48704;50.534;6.442;2023-11-19T07:59:21;95088.41;;;7.89;100.00
62634;BME280;48704;50.534;6.442;2023-11-19T08:01:46;95090.09;;;7.87;100.00
62634;BME280;48704;50.534;6.442;2023-11-19T08:04:11;95102.31;;;7.80;100.00
62634;BME280;48704;50.534;6.442;2023-11-19T08:06:37;95096.75;;;7.80;100.00
62634;BME280;48704;50.534;6.442;2023-11-19T08:09:02;95100.50;;;7.77;100.00
62634;BME280;48704;50.534;6.442;2023-11-19T08:11:27;95094.97;;;7.77;100.00
62634;BME280;48704;50.534;6.442;2023-11-19T08:13:53;95117.91;;;7.78;100.00
62634;BME280;48704;50.534;6.442;2023-11-19T08:16:18;95119.25;;;7.82;100.00
62634;BME280;48704;50.534;6.442;2023-11-19T08:18:43;95102.44;;;7.86;100.00
62634;BME280;48704;50.534;6.442;2023-11-19T08:21:09;95097.00;;;7.91;100.00
62634;BME280;48704;50.534;6.442;2023-11-19T08:23:36;95092.06;;;7.95;100.00
62634;BME280;48704;50.534;6.442;2023-11-19T08:26:01;95092.66;;;7.99;100.00
62634;BME280;48704;50.534;6.442;2023-11-19T08:28:28;95103.41;;;8.07;100.00
62634;BME280;48704;50.534;6.442;2023-11-19T08:30:54;95103.50;;;8.12;100.00
62634;BME280;48704;50.534;6.442;2023-11-19T08:33:20;95091.19;;;8.13;100.00
62634;BME280;48704;50.534;6.442;2023-11-19T08:35:47;95083.50;;;8.08;100.00
62634;BME280;48704;50.534;6.442;2023-11-19T08:38:12;95080.84;;;8.14;100.00
62634;BME280;48704;50.534;6.442;2023-11-19T08:40:38;95087.03;;;8.09;100.00
62634;BME280;48704;50.534;6.442;2023-11-19T08:43:03;95087.34;;;8.11;100.00
62634;BME280;48704;50.534;6.442;2023-11-19T08:45:29;95076.53;;;8.13;100.00
62634;BME280;48704;50.534;6.442;2023-11-19T08:47:55;95123.72;;;8.13;100.00
62634;BME280;48704;50.534;6.442;2023-11-19T08:50:20;95061.88;;;8.12;100.00
62634;BME280;48704;50.534;6.442;2023-11-19T08:52:46;95087.53;;;8.22;100.00
62634;BME280;48704;50.534;6.442;2023-11-19T08:55:11;95096.41;;;8.35;100.00
62634;BME280;48704;50.534;6.442;2023-11-19T08:57:38;95082.19;;;8.42;100.00
62634;BME280;48704;50.534;6.442;2023-11-19T09:00:04;95080.84;;;8.52;100.00
62634;BME280;48704;50.534;6.442;2023-11-19T09:02:36;95077.31;;;8.66;100.00
62634;BME280;48704;50.534;6.442;2023-11-19T09:05:02;95085.94;;;8.68;100.00
62634;BME280;48704;50.534;6.442;2023-11-19T09:07:28;95087.31;;;8.88;100.00
62634;BME280;48704;50.534;6.442;2023-11-19T09:09:53;95089.84;;;8.62;100.00
62634;BME280;48704;50.534;6.442;2023-11-19T09:12:18;95099.13;;;8.44;100.00
62634;BME280;48704;50.534;6.442;2023-11-19T09:14:44;95096.25;;;8.38;100.00
62634;BME280;48704;50.534;6.442;2023-11-19T09:17:11;95082.84;;;8.37;100.00
62634;BME280;48704;50.534;6.442;2023-11-19T09:19:36;95111.34;;;8.37;100.00
62634;BME280;48704;50.534;6.442;2023-11-19T09:22:02;95101.59;;;8.42;100.00
62634;BME280;48704;50.534;6.442;2023-11-19T09:24:27;95102.78;;;8.50;100.00
62634;BME280;48704;50.534;6.442;2023-11-19T09:26:53;95113.03;;;8.59;100.00
62634;BME280;48704;50.534;6.442;2023-11-19T09:29:20;95080.16;;;8.57;100.00
62634;BME280;48704;50.534;6.442;2023-11-19T09:31:46;95102.03;;;8.64;100.00
62634;BME280;48704;50.534;6.442;2023-11-19T09:34:12;95086.69;;;8.69;100.00
62634;BME280;48704;50.534;6.442;2023-11-19T09:36:37;95096.47;;;8.94;100.00
62634;BME280;48704;50.534;6.442;2023-11-19T09:39:02;95107.59;;;8.94;100.00
62634;BME280;48704;50.534;6.442;2023-11-19T09:41:30;95087.84;;;9.21;100.00
62634;BME280;48704;50.534;6.442;2023-11-19T09:43:56;95100.47;;;9.52;100.00
62634;BME280;48704;50.534;6.442;2023-11-19T09:46:21;95091.94;;;9.41;100.00
62634;BME280;48704;50.534;6.442;2023-11-19T09:48:52;95100.84;;;9.59;100.00
62634;BME280;48704;50.534;6.442;2023-11-19T09:51:19;95103.31;;;9.92;100.00
62634;BME280;48704;50.534;6.442;2023-11-19T09:53:45;95084.81;;;9.89;100.00
62634;BME280;48704;50.534;6.442;2023-11-19T09:56:11;95074.59;;;10.01;100.00
62634;BME280;48704;50.534;6.442;2023-11-19T09:58:37;95087.63;;;10.30;100.00
62634;BME280;48704;50.534;6.442;2023-11-19T10:01:03;95071.03;;;10.41;100.00
62634;BME280;48704;50.534;6.442;2023-11-19T10:03:34;95067.41;;;10.15;100.00
62634;BME280;48704;50.534;6.442;2023-11-19T10:06:06;95080.38;;;9.97;100.00
62634;BME280;48704;50.534;6.442;2023-11-19T10:08:32;95093.09;;;10.04;100.00
62634;BME280;48704;50.534;6.442;2023-11-19T10:10:57;95082.06;;;10.30;100.00
62634;BME280;48704;50.534;6.442;2023-11-19T10:13:28;95096.88;;;10.01;100.00
62634;BME280;48704;50.534;6.442;2023-11-19T10:15:55;95087.25;;;10.02;100.00
62634;BME280;48704;50.534;6.442;2023-11-19T10:18:25;95096.69;;;10.25;100.00
62634;BME280;48704;50.534;6.442;2023-11-19T10:20:51;95070.41;;;10.11;100.00
62634;BME280;48704;50.534;6.442;2023-11-19T10:23:16;95070.72;;;10.33;100.00
62634;BME280;48704;50.534;6.442;2023-11-19T10:25:41;95075.72;;;10.76;100.00
62634;BME280;48704;50.534;6.442;2023-11-19T10:28:07;95077.25;;;10.77;100.00
62634;BME280;48704;50.534;6.442;2023-11-19T10:30:32;95064.41;;;10.59;100.00
62634;BME280;48704;50.534;6.442;2023-11-19T10:35:35;95059.97;;;10.98;100.00
62634;BME280;48704;50.534;6.442;2023-11-19T10:38:01;95058.81;;;10.85;100.00
62634;BME280;48704;50.534;6.442;2023-11-19T10:40:39;95061.94;;;10.92;100.00
62634;BME280;48704;50.534;6.442;2023-11-19T10:43:08;95058.75;;;11.05;100.00
62634;BME280;48704;50.534;6.442;2023-11-19T10:45:37;95065.44;;;10.61;100.00
62634;BME280;48704;50.534;6.442;2023-11-19T10:48:04;95087.75;;;11.13;100.00
62634;BME280;48704;50.534;6.442;2023-11-19T10:50:36;95058.22;;;11.01;100.00
62634;BME280;48704;50.534;6.442;2023-11-19T10:53:03;95064.66;;;10.87;100.00
62634;BME280;48704;50.534;6.442;2023-11-19T10:55:30;95047.28;;;10.97;100.00
62634;BME280;48704;50.534;6.442;2023-11-19T10:58:03;95059.00;;;10.76;100.00
62634;BME280;48704;50.534;6.442;2023-11-19T11:00:30;95056.97;;;10.50;100.00
62634;BME280;48704;50.534;6.442;2023-11-19T11:03:02;95049.00;;;10.63;100.00
62634;BME280;48704;50.534;6.442;2023-11-19T11:05:32;95036.59;;;10.38;100.00
62634;BME280;48704;50.534;6.442;2023-11-19T11:08:00;95048.81;;;9.65;100.00
62634;BME280;48704;50.534;6.442;2023-11-19T11:10:26;95048.31;;;9.67;100.00
62634;BME280;48704;50.534;6.442;2023-11-19T11:12:52;95062.69;;;10.00;100.00
62634;BME280;48704;50.534;6.442;2023-11-19T11:15:26;95052.31;;;9.81;100.00
62634;BME280;48704;50.534;6.442;2023-11-19T11:17:57;95053.81;;;9.61;100.00
62634;BME280;48704;50.534;6.442;2023-11-19T11:20:25;95056.94;;;9.69;100.00
62634;BME280;48704;50.534;6.442;2023-11-19T11:26:05;95048.81;;;9.30;100.00
62634;BME280;48704;50.534;6.442;2023-11-19T11:28:43;95051.25;;;9.23;100.00
62634;BME280;48704;50.534;6.442;2023-11-19T11:36:58;95098.69;;;9.19;100.00
62634;BME280;48704;50.534;6.442;2023-11-19T11:39:29;95036.56;;;9.22;100.00
62634;BME280;48704;50.534;6.442;2023-11-19T11:45:06;95023.41;;;10.19;100.00
62634;BME280;48704;50.534;6.442;2023-11-19T11:55:36;95024.34;;;11.45;100.00
62634;BME280;48704;50.534;6.442;2023-11-19T11:58:03;95003.75;;;11.37;100.00
62634;BME280;48704;50.534;6.442;2023-11-19T12:02:55;95024.94;;;11.23;100.00
62634;BME280;48704;50.534;6.442;2023-11-19T12:05:21;95018.00;;;10.82;100.00
62634;BME280;48704;50.534;6.442;2023-11-19T12:08:15;95014.97;;;11.11;100.00
62634;BME280;48704;50.534;6.442;2023-11-19T12:10:54;95004.00;;;11.02;100.00
62634;BME280;48704;50.534;6.442;2023-11-19T12:13:20;94988.50;;;10.44;100.00
62634;BME280;48704;50.534;6.442;2023-11-19T12:18:24;94989.69;;;10.31;100.00
62634;BME280;48704;50.534;6.442;2023-11-19T12:20:51;95012.88;;;10.23;100.00
62634;BME280;48704;50.534;6.442;2023-11-19T12:23:17;94988.78;;;10.20;100.00
62634;BME280;48704;50.534;6.442;2023-11-19T12:25:42;94996.50;;;10.56;100.00
62634;BME280;48704;50.534;6.442;2023-11-19T12:28:13;95055.75;;;10.83;100.00
62634;BME280;48704;50.534;6.442;2023-11-19T12:30:39;95013.56;;;10.95;100.00
62634;BME280;48704;50.534;6.442;2023-11-19T12:33:11;95004.34;;;11.15;100.00
62634;BME280;48704;50.534;6.442;2023-11-19T12:35:44;95005.09;;;10.84;100.00
62634;BME280;48704;50.534;6.442;2023-11-19T12:38:23;95012.34;;;10.70;100.00
62634;BME280;48704;50.534;6.442;2023-11-19T12:41:03;95039.88;;;9.96;100.00
62634;BME280;48704;50.534;6.442;2023-11-19T12:43:29;95013.84;;;9.79;100.00
62634;BME280;48704;50.534;6.442;2023-11-19T12:45:54;95026.22;;;9.58;100.00
62634;BME280;48704;50.534;6.442;2023-11-19T12:48:20;95044.88;;;9.92;100.00
62634;BME280;48704;50.534;6.442;2023-11-19T12:50:56;95017.03;;;10.33;100.00
62634;BME280;48704;50.534;6.442;2023-11-19T12:53:23;95026.75;;;10.95;100.00
62634;BME280;48704;50.534;6.442;2023-11-19T12:55:49;95027.59;;;11.07;100.00
62634;BME280;48704;50.534;6.442;2023-11-19T12:58:29;95030.41;;;10.81;100.00
62634;BME280;48704;50.534;6.442;2023-11-19T13:01:05;95025.47;;;10.64;100.00
62634;BME280;48704;50.534;6.442;2023-11-19T13:03:34;95036.47;;;10.27;100.00
62634;BME280;48704;50.534;6.442;2023-11-19T13:06:08;95015.69;;;10.08;100.00
62634;BME280;48704;50.534;6.442;2023-11-19T13:11:06;95025.16;;;9.76;100.00
62634;BME280;48704;50.534;6.442;2023-11-19T13:13:52;95016.41;;;9.62;100.00
62634;BME280;48704;50.534;6.442;2023-11-19T13:16:18;95025.81;;;9.65;100.00
62634;BME280;48704;50.534;6.442;2023-11-19T13:18:44;95018.69;;;10.04;100.00
62634;BME280;48704;50.534;6.442;2023-11-19T13:21:09;95013.38;;;10.47;100.00
62634;BME280;48704;50.534;6.442;2023-11-19T13:23:34;95023.94;;;10.63;100.00
62634;BME280;48704;50.534;6.442;2023-11-19T13:26:00;95027.47;;;10.18;100.00
62634;BME280;48704;50.534;6.442;2023-11-19T13:28:25;95024.81;;;10.09;100.00
62634;BME280;48704;50.534;6.442;2023-11-19T13:30:51;95026.50;;;10.21;100.00
62634;BME280;48704;50.534;6.442;2023-11-19T13:33:18;95020.34;;;10.17;100.00
62634;BME280;48704;50.534;6.442;2023-11-19T13:35:44;95024.56;;;9.86;100.00
62634;BME280;48704;50.534;6.442;2023-11-19T13:38:09;95008.84;;;9.63;100.00
62634;BME280;48704;50.534;6.442;2023-11-19T13:40:35;95013.19;;;9.49;100.00
62634;BME280;48704;50.534;6.442;2023-11-19T13:43:00;95006.41;;;9.35;100.00
62634;BME280;48704;50.534;6.442;2023-11-19T13:45:26;95024.78;;;9.27;100.00
62634;BME280;48704;50.534;6.442;2023-11-19T13:47:51;95015.03;;;9.02;100.00
62634;BME280;48704;50.534;6.442;2023-11-19T13:50:16;95020.81;;;8.69;100.00
62634;BME280;48704;50.534;6.442;2023-11-19T13:52:44;95015.47;;;8.51;100.00
62634;BME280;48704;50.534;6.442;2023-11-19T13:55:11;95004.53;;;8.33;100.00
62634;BME280;48704;50.534;6.442;2023-11-19T13:57:38;95015.97;;;8.11;100.00